Time;durP1;ratioP1;P1;durP2;ratioP2;P2;SDS_P1;SDS_P2;PMS_P1;PMS_P2;Temp;Humidity;BMP_temperature;BMP_pressure;BME280_temperature;BME280_humidity;BME280_pressure;Samples;Min_cycle;Max_cycle;Signal;HPM_P1;HPM_P2
2023/07/15 00:00:23;;;;;;;4.70;3.50;;;;;;;15.52;78.92;100437.17;105546;1258;73510;-47
2023/07/15 00:03:13;;;;;;;3.80;3.00;;;;;;;15.53;79.13;100433.21;105415;1254;85164;-47
2023/07/15 00:05:41;;;;;;;4.30;3.20;;;;;;;15.54;79.08;100429.48;105423;1255;73698;-46
2023/07/15 00:08:09;;;;;;;4.30;3.20;;;;;;;15.52;78.98;100428.52;105740;1259;69859;-47
2023/07/15 00:10:41;;;;;;;4.80;3.20;;;;;;;15.50;78.94;100426.71;105645;1258;69973;-47
2023/07/15 00:13:14;;;;;;;6.20;3.60;;;;;;;15.48;79.02;100422.81;105605;1257;74903;-47
2023/07/15 00:15:45;;;;;;;4.70;2.90;;;;;;;15.45;78.83;100416.45;105444;1257;83339;-46
2023/07/15 00:18:14;;;;;;;5.10;3.00;;;;;;;15.41;78.90;100409.80;105466;1258;71870;-46
2023/07/15 00:20:44;;;;;;;5.70;3.30;;;;;;;15.38;78.89;100406.96;105457;1257;70124;-46
2023/07/15 00:23:25;;;;;;;7.90;3.40;;;;;;;15.35;78.81;100409.79;105433;1258;69926;-48
2023/07/15 00:25:53;;;;;;;4.90;3.20;;;;;;;15.31;78.79;100402.24;105411;1257;74677;-47
2023/07/15 00:28:22;;;;;;;5.80;3.40;;;;;;;15.30;78.98;100401.78;105788;1257;82397;-47
2023/07/15 00:30:53;;;;;;;5.60;3.30;;;;;;;15.30;78.98;100396.33;105654;1257;73664;-47
2023/07/15 00:33:22;;;;;;;5.60;3.80;;;;;;;15.31;79.10;100394.87;105570;1255;69954;-46
2023/07/15 00:35:51;;;;;;;3.40;3.00;;;;;;;15.32;79.12;100387.76;105498;1256;70325;-47
2023/07/15 00:38:19;;;;;;;4.60;3.50;;;;;;;15.32;79.07;100379.48;105484;1259;73866;-47
2023/07/15 00:40:49;;;;;;;5.90;2.90;;;;;;;15.31;79.21;100376.54;105536;1266;82091;-46
2023/07/15 00:43:58;;;;;;;7.00;3.40;;;;;;;15.31;79.29;100374.98;105494;1259;72835;-47
2023/07/15 00:46:46;;;;;;;;;;;;;;;15.28;79.27;100376.36;105446;1254;69946;-47
2023/07/15 00:49:15;;;;;;;5.20;3.30;;;;;;;15.28;79.44;100377.62;105665;1258;70062;-46
2023/07/15 00:52:04;;;;;;;5.00;3.20;;;;;;;15.27;79.43;100376.27;105655;1257;75052;-47
2023/07/15 00:54:35;;;;;;;4.30;3.10;;;;;;;15.28;79.44;100376.06;105450;1255;83735;-47
2023/07/15 00:57:06;;;;;;;4.90;3.60;;;;;;;15.28;79.51;100372.70;105440;1254;73503;-47
2023/07/15 00:59:35;;;;;;;3.80;3.00;;;;;;;15.28;79.54;100371.79;105601;1258;70044;-47
2023/07/15 01:02:04;;;;;;;6.70;3.60;;;;;;;15.28;79.58;100363.54;105519;1255;70193;-47
2023/07/15 01:04:32;;;;;;;7.40;3.80;;;;;;;15.25;79.46;100363.69;105331;1259;75091;-47
2023/07/15 01:07:00;;;;;;;5.80;3.40;;;;;;;15.24;79.45;100366.45;105431;1257;83123;-47
2023/07/15 01:09:28;;;;;;;5.40;3.50;;;;;;;15.22;79.44;100370.25;105388;1254;71728;-48
2023/07/15 01:11:57;;;;;;;5.00;3.40;;;;;;;15.19;79.48;100372.31;105368;1258;70009;-47
2023/07/15 01:14:31;;;;;;;3.90;3.00;;;;;;;15.18;79.77;100372.34;105687;1255;69867;-47
2023/07/15 01:16:59;;;;;;;5.70;3.80;;;;;;;15.17;79.69;100374.36;105672;1253;74779;-47
2023/07/15 01:19:28;;;;;;;5.00;3.30;;;;;;;15.15;79.77;100367.95;105735;1254;82747;-47
2023/07/15 01:21:57;;;;;;;5.70;3.20;;;;;;;15.13;79.67;100369.49;105418;1257;73712;-47
2023/07/15 01:24:26;;;;;;;5.80;3.20;;;;;;;15.10;79.67;100369.11;105288;1255;69965;-46
2023/07/15 01:27:08;;;;;;;7.20;3.60;;;;;;;15.06;79.74;100369.85;105523;1254;70062;-47
2023/07/15 01:29:36;;;;;;;3.90;3.30;;;;;;;15.05;79.71;100365.73;105417;1257;73021;-47
2023/07/15 01:32:05;;;;;;;6.40;4.00;;;;;;;15.03;79.81;100361.42;105415;1253;82568;-47
2023/07/15 01:34:33;;;;;;;7.40;3.30;;;;;;;14.99;79.87;100363.04;105534;1254;71714;-47
2023/07/15 01:37:03;;;;;;;4.90;3.60;;;;;;;14.96;79.90;100363.40;105427;1254;70079;-46
2023/07/15 01:39:31;;;;;;;4.30;3.20;;;;;;;14.90;79.99;100361.08;105433;1257;70413;-47
2023/07/15 01:42:00;;;;;;;6.20;3.50;;;;;;;14.86;80.12;100361.34;105432;1257;74665;-48
2023/07/15 01:44:28;;;;;;;4.40;3.50;;;;;;;14.86;80.33;100363.97;105400;1257;83471;-46
2023/07/15 01:46:56;;;;;;;7.60;3.60;;;;;;;14.82;80.27;100363.45;105395;1259;73704;-47
2023/07/15 01:49:25;;;;;;;5.80;4.10;;;;;;;14.80;80.48;100362.89;105385;1254;69987;-47
2023/07/15 01:51:53;;;;;;;4.30;3.80;;;;;;;14.78;80.60;100358.77;105642;1254;69919;-47
2023/07/15 01:54:22;;;;;;;3.90;3.30;;;;;;;14.75;80.68;100353.30;105604;1254;72880;-47
2023/07/15 01:56:52;;;;;;;8.30;3.90;;;;;;;14.72;80.90;100347.48;105453;1257;83083;-47
2023/07/15 01:59:20;;;;;;;6.80;3.50;;;;;;;14.70;81.10;100343.89;105490;1254;73852;-47
2023/07/15 02:01:49;;;;;;;5.80;3.90;;;;;;;14.66;81.17;100342.50;105112;1257;70008;-46
2023/07/15 02:04:19;;;;;;;6.40;3.70;;;;;;;14.64;81.38;100346.02;105199;1260;70086;-47
2023/07/15 02:06:47;;;;;;;4.90;4.00;;;;;;;14.62;81.28;100338.55;105352;1254;74610;-46
2023/07/15 02:09:15;;;;;;;6.60;4.10;;;;;;;14.60;81.43;100335.34;105370;1255;83327;-47
2023/07/15 02:11:44;;;;;;;4.20;3.30;;;;;;;14.56;81.43;100339.94;105366;1259;72938;-47
2023/07/15 02:14:12;;;;;;;8.40;4.10;;;;;;;14.52;81.45;100344.54;105454;1254;69868;-46
2023/07/15 02:16:41;;;;;;;6.00;3.80;;;;;;;14.49;81.56;100345.35;105445;1256;69932;-46
2023/07/15 02:19:10;;;;;;;6.30;3.70;;;;;;;14.46;81.66;100341.48;105358;1254;74829;-46
2023/07/15 02:21:39;;;;;;;4.60;3.50;;;;;;;14.43;81.67;100339.34;105569;1257;82218;-47
2023/07/15 02:24:08;;;;;;;6.00;3.40;;;;;;;14.41;81.81;100339.83;105478;1254;73561;-47
2023/07/15 02:26:36;;;;;;;4.60;3.60;;;;;;;14.40;81.97;100342.17;105362;1254;70322;-47
2023/07/15 02:29:04;;;;;;;3.40;3.00;;;;;;;14.41;82.18;100341.38;105323;1257;176937;-48
2023/07/15 02:31:34;;;;;;;5.80;4.00;;;;;;;14.39;82.00;100339.06;105451;1254;75003;-46
2023/07/15 02:34:02;;;;;;;4.70;3.80;;;;;;;14.35;82.11;100342.42;105339;1259;83543;-48
2023/07/15 02:36:31;;;;;;;3.80;3.40;;;;;;;14.33;82.39;100342.38;105226;1255;73383;-47
2023/07/15 02:39:00;;;;;;;5.30;3.70;;;;;;;14.32;82.73;100345.21;105391;1254;69984;-46
2023/07/15 02:41:28;;;;;;;6.30;3.50;;;;;;;14.32;82.82;100341.52;105228;1260;70346;-46
2023/07/15 02:43:56;;;;;;;6.20;4.10;;;;;;;14.32;82.93;100339.95;105424;1254;73957;-47
2023/07/15 02:46:25;;;;;;;4.90;3.90;;;;;;;14.33;83.09;100339.73;105373;1257;83267;-47
2023/07/15 02:48:55;;;;;;;4.10;3.40;;;;;;;14.31;83.15;100335.26;105423;1257;73700;-46
2023/07/15 02:51:24;;;;;;;5.10;4.10;;;;;;;14.29;83.16;100334.15;105356;1253;69985;-48
2023/07/15 02:53:52;;;;;;;5.60;4.00;;;;;;;14.27;83.22;100331.27;105556;1254;69940;-47
2023/07/15 02:56:21;;;;;;;5.80;3.60;;;;;;;14.24;83.38;100332.47;105382;1257;75068;-47
2023/07/15 02:58:49;;;;;;;5.40;4.00;;;;;;;14.21;83.31;100332.63;105484;1254;83572;-47
2023/07/15 03:01:18;;;;;;;7.30;4.00;;;;;;;14.19;83.24;100332.38;105281;1261;72826;-47
2023/07/15 03:03:47;;;;;;;9.70;4.60;;;;;;;14.17;83.39;100332.85;105438;1254;69977;-47
2023/07/15 03:06:15;;;;;;;7.90;3.60;;;;;;;14.18;83.46;100332.95;105315;1261;69985;-47
2023/07/15 03:08:44;;;;;;;6.70;3.80;;;;;;;14.22;83.70;100337.11;105385;1257;74801;-47
2023/07/15 03:11:13;;;;;;;8.80;4.40;;;;;;;14.23;83.40;100336.05;105574;1254;83692;-47
2023/07/15 03:13:41;;;;;;;5.10;3.90;;;;;;;14.21;83.51;100333.83;105427;1260;73599;-47
2023/07/15 03:16:10;;;;;;;9.00;4.40;;;;;;;14.21;83.40;100331.76;105429;1257;69898;-46
2023/07/15 03:18:42;;;;;;;10.30;4.20;;;;;;;14.17;83.43;100335.13;105376;1254;70375;-48
2023/07/15 03:21:10;;;;;;;5.70;3.90;;;;;;;14.14;83.49;100337.23;105351;1254;75169;-47
2023/07/15 03:23:41;;;;;;;10.00;4.70;;;;;;;14.18;83.81;100338.08;105398;1254;83654;-47
2023/07/15 03:26:10;;;;;;;5.50;4.10;;;;;;;14.22;83.94;100331.34;105330;1254;73690;-47
2023/07/15 03:28:39;;;;;;;6.70;3.90;;;;;;;14.25;84.00;100326.42;105413;1257;70016;-47
2023/07/15 03:31:08;;;;;;;6.10;4.20;;;;;;;14.24;83.73;100325.79;105618;1254;69987;-48
2023/07/15 03:33:36;;;;;;;5.60;4.20;;;;;;;14.21;83.81;100319.80;105398;1253;73792;-49
2023/07/15 03:36:05;;;;;;;6.30;4.10;;;;;;;14.19;83.91;100318.14;105401;1253;82488;-47
2023/07/15 03:38:33;;;;;;;5.40;4.50;;;;;;;14.18;84.01;100315.90;105274;1259;72508;-48
2023/07/15 03:41:02;;;;;;;8.20;4.60;;;;;;;14.19;84.03;100319.90;105357;1254;69993;-47
2023/07/15 03:43:30;;;;;;;7.20;4.40;;;;;;;14.21;84.35;100311.38;105448;1257;70197;-46
2023/07/15 03:45:59;;;;;;;6.60;4.60;;;;;;;14.23;84.32;100311.42;105382;1255;73765;-47
2023/07/15 03:48:27;;;;;;;7.00;4.10;;;;;;;14.26;84.53;100305.81;105471;1255;83194;-46
2023/07/15 03:50:56;;;;;;;5.90;4.30;;;;;;;14.29;84.59;100304.64;105372;1255;73630;-47
2023/07/15 03:53:25;;;;;;;6.50;4.60;;;;;;;14.32;84.60;100305.54;105489;1257;70035;-46
2023/07/15 03:55:53;;;;;;;10.10;4.90;;;;;;;14.33;84.70;100308.60;105623;1254;69996;-47
2023/07/15 03:58:21;;;;;;;7.50;4.40;;;;;;;14.32;84.62;100311.15;105427;1255;73752;-46
2023/07/15 04:00:50;;;;;;;5.80;3.90;;;;;;;14.33;84.82;100310.90;105562;1257;81703;-47
2023/07/15 04:03:18;;;;;;;6.70;4.20;;;;;;;14.39;85.17;100312.86;105502;1254;73370;-47
2023/07/15 04:05:47;;;;;;;6.50;4.30;;;;;;;14.43;85.36;100314.39;105401;1257;70007;-46
2023/07/15 04:08:15;;;;;;;6.00;4.10;;;;;;;14.49;85.47;100318.27;105366;1257;69948;-46
2023/07/15 04:10:47;;;;;;;5.40;4.30;;;;;;;14.55;85.62;100321.36;105426;1253;74848;-47
2023/07/15 04:13:15;;;;;;;6.30;4.90;;;;;;;14.63;86.00;100327.08;105697;1254;82900;-47
2023/07/15 04:15:44;;;;;;;10.90;5.40;;;;;;;14.73;86.27;100327.92;105524;1254;73630;-47
2023/07/15 04:18:12;;;;;;;6.10;4.50;;;;;;;14.85;86.63;100325.28;105684;1254;70004;-47
2023/07/15 04:20:41;;;;;;;10.00;5.00;;;;;;;15.01;86.45;100330.55;105573;1257;70035;-46
2023/07/15 04:23:09;;;;;;;4.90;4.10;;;;;;;15.18;86.34;100323.43;105462;1258;74782;-46
2023/07/15 04:25:38;;;;;;;7.50;4.70;;;;;;;15.34;85.76;100320.22;105449;1256;83124;-47
2023/07/15 04:28:06;;;;;;;7.30;4.40;;;;;;;15.49;85.52;100315.83;105490;1257;72700;-47
2023/07/15 04:30:35;;;;;;;5.50;3.90;;;;;;;15.64;85.26;100313.35;105372;1254;69987;-47
2023/07/15 04:33:03;;;;;;;8.80;4.40;;;;;;;15.80;85.06;100307.36;105380;1257;69923;-47
2023/07/15 04:35:32;;;;;;;7.90;4.80;;;;;;;15.95;85.08;100304.46;105473;1257;74855;-46
2023/07/15 04:38:00;;;;;;;4.60;4.20;;;;;;;16.12;84.99;100302.89;105228;1259;82394;-47
2023/07/15 04:40:28;;;;;;;7.40;4.50;;;;;;;16.30;84.78;100307.64;105442;1253;71784;-46
2023/07/15 04:42:57;;;;;;;7.70;4.40;;;;;;;16.44;84.42;100307.46;105394;1254;69979;-47
2023/07/15 04:45:26;;;;;;;8.60;4.60;;;;;;;16.57;83.97;100312.47;105653;1253;69857;-48
2023/07/15 04:47:55;;;;;;;5.50;4.10;;;;;;;16.69;83.59;100311.88;105470;1253;73771;-47
2023/07/15 04:50:24;;;;;;;4.70;4.00;;;;;;;16.80;83.28;100316.84;105333;1260;83501;-47
2023/07/15 04:52:52;;;;;;;8.30;4.30;;;;;;;16.91;82.90;100315.06;105389;1254;72683;-47
2023/07/15 04:55:21;;;;;;;7.50;4.80;;;;;;;17.02;82.73;100315.45;105429;1257;69993;-47
2023/07/15 04:57:49;;;;;;;6.80;4.20;;;;;;;17.09;82.36;100313.19;105412;1254;69952;-47
2023/07/15 05:00:20;;;;;;;6.70;4.80;;;;;;;17.16;81.81;100313.12;105412;1257;74136;-48
2023/07/15 05:02:49;;;;;;;6.20;4.30;;;;;;;17.22;81.85;100310.54;105393;1256;83463;-47
2023/07/15 05:05:18;;;;;;;8.30;4.90;;;;;;;17.30;81.45;100310.77;105442;1253;73685;-46
2023/07/15 05:07:49;;;;;;;6.60;4.60;;;;;;;17.37;81.12;100310.62;105407;1253;69871;-47
2023/07/15 05:10:26;;;;;;;5.40;4.60;;;;;;;17.47;80.82;100309.84;105361;1257;69929;-48
2023/07/15 05:12:55;;;;;;;8.70;4.70;;;;;;;17.55;80.47;100312.23;105415;1253;74913;-49
2023/07/15 05:15:24;;;;;;;7.30;4.70;;;;;;;17.65;80.13;100307.90;105391;1257;83322;-49
2023/07/15 05:17:53;;;;;;;6.80;4.80;;;;;;;17.75;79.81;100309.86;105362;1254;73877;-49
2023/07/15 05:20:21;;;;;;;6.20;4.50;;;;;;;17.84;79.53;100313.16;105294;1254;69955;-48
2023/07/15 05:22:50;;;;;;;8.40;4.50;;;;;;;17.92;79.30;100313.83;105385;1256;69858;-49
2023/07/15 05:25:19;;;;;;;5.00;4.30;;;;;;;18.01;79.00;100310.00;105446;1253;73706;-48
2023/07/15 05:27:47;;;;;;;7.20;4.50;;;;;;;18.10;78.83;100310.85;105478;1252;81905;-48
2023/07/15 05:30:16;;;;;;;10.40;4.70;;;;;;;18.18;78.70;100312.17;105400;1253;74091;-48
2023/07/15 05:32:44;;;;;;;7.80;4.70;;;;;;;18.25;78.20;100317.50;105358;1254;69986;-48
2023/07/15 05:35:12;;;;;;;6.60;4.90;;;;;;;18.33;78.03;100317.70;105383;1253;69892;-49
2023/07/15 05:37:41;;;;;;;7.20;4.80;;;;;;;18.40;77.88;100310.11;105405;1253;74532;-48
2023/07/15 05:40:10;;;;;;;9.20;4.60;;;;;;;18.47;77.73;100313.00;105411;1253;83352;-48
2023/07/15 05:42:42;;;;;;;7.50;5.30;;;;;;;18.55;77.64;100314.91;105372;1254;72357;-47
2023/07/15 05:45:12;;;;;;;11.80;6.40;;;;;;;18.62;77.43;100311.54;105304;1254;70112;-47
2023/07/15 05:47:41;;;;;;;;;;;;;;;18.70;77.36;100309.94;105316;1253;69935;-48
2023/07/15 05:50:10;;;;;;;8.40;4.70;;;;;;;18.78;77.42;100313.63;105317;1253;74812;-48
2023/07/15 05:52:38;;;;;;;5.80;4.30;;;;;;;18.84;76.99;100315.14;105427;1253;83368;-48
2023/07/15 05:55:07;;;;;;;5.90;4.40;;;;;;;18.89;76.76;100315.29;105375;1253;73687;-48
2023/07/15 05:57:35;;;;;;;6.80;4.20;;;;;;;18.95;76.70;100314.84;105433;1256;69921;-49
2023/07/15 06:00:08;;;;;;;5.50;4.20;;;;;;;19.01;76.47;100312.26;105417;1257;69922;-48
2023/07/15 06:02:38;;;;;;;5.40;4.40;;;;;;;19.08;76.44;100309.67;105444;1256;74934;-48
2023/07/15 06:05:07;;;;;;;6.00;3.90;;;;;;;19.15;76.12;100312.16;105425;1253;82838;-49
2023/07/15 06:07:36;;;;;;;6.00;3.90;;;;;;;19.20;75.97;100308.95;105608;1255;73703;-46
2023/07/15 06:10:05;;;;;;;6.10;4.40;;;;;;;19.26;75.83;100303.75;105404;1255;70032;-45
2023/07/15 06:12:33;;;;;;;7.70;4.20;;;;;;;19.32;75.68;100304.83;105328;1257;69967;-47
2023/07/15 06:15:02;;;;;;;5.30;4.30;;;;;;;19.41;75.74;100300.30;105412;1257;75010;-47
2023/07/15 06:17:30;;;;;;;5.20;4.10;;;;;;;19.49;75.63;100298.61;105587;1257;83352;-49
2023/07/15 06:19:59;;;;;;;8.80;4.00;;;;;;;19.56;75.39;100297.50;105517;1257;73020;-48
2023/07/15 06:22:27;;;;;;;6.80;3.80;;;;;;;19.67;75.24;100295.17;105525;1257;69916;-47
2023/07/15 06:24:56;;;;;;;5.60;3.90;;;;;;;19.76;75.18;100294.27;105388;1258;70390;-51
2023/07/15 06:27:24;;;;;;;6.30;4.30;;;;;;;19.85;74.85;100289.63;105436;1253;74846;-46
2023/07/15 06:29:52;;;;;;;6.10;4.20;;;;;;;19.95;74.72;100290.84;105448;1258;83403;-47
2023/07/15 06:32:21;;;;;;;6.70;3.70;;;;;;;20.06;74.67;100295.32;105639;1254;73595;-45
2023/07/15 06:34:49;;;;;;;5.80;4.10;;;;;;;20.17;74.35;100294.30;106106;1256;69943;-45
2023/07/15 06:37:18;;;;;;;7.80;4.00;;;;;;;20.29;74.31;100293.35;105558;1253;69997;-46
2023/07/15 06:39:46;;;;;;;4.90;3.80;;;;;;;20.42;74.24;100294.02;105451;1256;75283;-45
2023/07/15 06:42:14;;;;;;;5.50;4.30;;;;;;;20.57;74.08;100295.02;105520;1256;82058;-48
2023/07/15 06:44:42;;;;;;;5.40;3.70;;;;;;;20.70;73.69;100292.36;105451;1257;73026;-45
2023/07/15 06:47:11;;;;;;;6.50;3.80;;;;;;;20.80;73.35;100293.84;105729;1257;69923;-45
2023/07/15 06:49:40;;;;;;;6.70;4.50;;;;;;;20.93;73.08;100293.17;105467;1257;69990;-45
2023/07/15 06:52:08;;;;;;;5.90;3.70;;;;;;;21.05;72.92;100290.01;105610;1253;74712;-46
2023/07/15 06:54:36;;;;;;;7.40;4.20;;;;;;;21.18;72.54;100288.77;105653;1257;83914;-43
2023/07/15 06:57:05;;;;;;;4.70;4.20;;;;;;;21.31;72.32;100289.80;105578;1253;73438;-44
2023/07/15 06:59:33;;;;;;;5.20;3.70;;;;;;;21.45;71.95;100294.70;105470;1257;69896;-44
2023/07/15 07:02:02;;;;;;;5.80;3.80;;;;;;;21.58;71.88;100290.64;105691;1256;70022;-44
2023/07/15 07:04:30;;;;;;;4.50;3.40;;;;;;;21.70;71.71;100290.80;105531;1256;74611;-44
2023/07/15 07:06:58;;;;;;;7.10;3.50;;;;;;;21.85;71.27;100284.94;105436;1253;84234;-45
2023/07/15 07:09:27;;;;;;;4.30;3.60;;;;;;;21.99;70.91;100284.05;105813;1253;73562;-44
2023/07/15 07:11:55;;;;;;;5.40;3.60;;;;;;;22.12;70.32;100280.29;105526;1253;70009;-44
2023/07/15 07:14:24;;;;;;;5.00;3.30;;;;;;;22.24;70.21;100273.16;105484;1256;70003;-46
2023/07/15 07:16:52;;;;;;;6.10;3.40;;;;;;;22.43;70.13;100273.81;105683;1253;74826;-49
2023/07/15 07:19:20;;;;;;;5.30;3.40;;;;;;;22.60;69.53;100277.66;106049;1256;83263;-47
2023/07/15 07:21:49;;;;;;;5.20;3.40;;;;;;;22.73;68.70;100281.29;105463;1257;72681;-47
2023/07/15 07:24:17;;;;;;;3.80;2.80;;;;;;;22.85;68.31;100282.55;105756;1253;69987;-46
2023/07/15 07:26:47;;;;;;;7.00;4.70;;;;;;;22.97;67.13;100280.95;105972;1255;69869;-44
2023/07/15 07:29:16;;;;;;;7.80;4.80;;;;;;;23.06;66.39;100283.49;105520;1257;75227;-43
2023/07/15 07:31:45;;;;;;;5.80;3.80;;;;;;;23.15;65.92;100276.80;105559;1257;83923;-43
2023/07/15 07:34:13;;;;;;;3.20;2.90;;;;;;;23.27;65.79;100277.47;105564;1253;72621;-44
2023/07/15 07:36:41;;;;;;;5.30;2.90;;;;;;;23.43;65.68;100278.16;105707;1256;69991;-44
2023/07/15 07:39:10;;;;;;;4.00;2.60;;;;;;;23.55;64.58;100272.91;105778;1254;70032;-45
2023/07/15 07:41:40;;;;;;;3.80;2.70;;;;;;;23.63;64.03;100262.92;105518;1257;75612;-43
2023/07/15 07:44:11;;;;;;;5.90;2.90;;;;;;;23.74;64.13;100265.65;105539;1258;82606;-44
2023/07/15 07:46:39;;;;;;;3.50;2.70;;;;;;;23.88;64.15;100264.02;105558;1257;73533;-44
2023/07/15 07:49:08;;;;;;;5.30;2.80;;;;;;;24.01;63.35;100262.75;105469;1254;69882;-44
2023/07/15 07:51:36;;;;;;;6.50;3.00;;;;;;;24.09;62.54;100262.89;105632;1257;69936;-45
2023/07/15 07:54:04;;;;;;;5.00;2.90;;;;;;;24.15;62.30;100261.36;105402;1256;73358;-44
2023/07/15 07:56:32;;;;;;;4.60;2.40;;;;;;;24.22;61.91;100256.52;105411;1256;83297;-45
2023/07/15 07:59:02;;;;;;;6.80;2.90;;;;;;;24.33;61.41;100259.48;105452;1256;72637;-44
2023/07/15 08:01:31;;;;;;;3.80;2.50;;;;;;;24.42;61.25;100257.72;105525;1254;70010;-44
2023/07/15 08:04:00;;;;;;;3.70;2.80;;;;;;;24.51;60.88;100256.97;105596;1254;69963;-44
2023/07/15 08:06:28;;;;;;;3.30;2.40;;;;;;;24.65;61.06;100262.08;105590;1253;76172;-45
2023/07/15 08:08:56;;;;;;;4.20;2.70;;;;;;;24.79;60.14;100265.35;105530;1257;83660;-44
2023/07/15 08:11:25;;;;;;;3.80;2.40;;;;;;;24.88;59.57;100261.05;105495;1253;73602;-45
2023/07/15 08:13:54;;;;;;;3.70;2.70;;;;;;;24.98;59.65;100256.45;105646;1253;70074;-44
2023/07/15 08:16:36;;;;;;;6.30;2.50;;;;;;;25.11;59.19;100254.95;105426;1255;70454;-46
2023/07/15 08:19:06;;;;;;;3.90;2.60;;;;;;;25.23;58.80;100252.38;105835;1253;75119;-44
2023/07/15 08:21:34;;;;;;;4.40;2.60;;;;;;;25.34;58.16;100252.30;105577;1253;83494;-44
2023/07/15 08:24:03;;;;;;;4.50;2.50;;;;;;;25.45;57.71;100244.45;105614;1258;73661;-44
2023/07/15 08:26:31;;;;;;;4.40;2.70;;;;;;;25.59;57.87;100245.16;105567;1253;69889;-45
2023/07/15 08:29:02;;;;;;;3.70;2.40;;;;;;;25.73;57.16;100245.09;105469;1254;69965;-43
2023/07/15 08:31:30;;;;;;;3.60;2.40;;;;;;;25.83;57.08;100248.90;105565;1253;73764;-43
2023/07/15 08:33:59;;;;;;;5.90;2.60;;;;;;;25.93;56.03;100252.54;105459;1257;82283;-46
2023/07/15 08:36:27;;;;;;;5.20;2.30;;;;;;;25.97;55.66;100249.77;105510;1253;73499;-43
2023/07/15 08:38:55;;;;;;;6.50;2.70;;;;;;;26.04;55.64;100250.55;105886;1253;69929;-46
2023/07/15 08:41:24;;;;;;;4.70;2.80;;;;;;;26.14;55.18;100248.98;105456;1253;70074;-45
2023/07/15 08:43:53;;;;;;;7.40;4.70;;;;;;;26.22;55.11;100246.17;105664;1253;75093;-47
2023/07/15 08:46:30;;;;;;;17.60;10.60;;;;;;;26.37;55.15;100246.48;105577;1256;83170;-46
2023/07/15 08:49:00;;;;;;;6.40;3.60;;;;;;;26.52;54.54;100249.77;105436;1253;73657;-45
2023/07/15 08:51:34;;;;;;;6.30;2.90;;;;;;;26.62;54.49;100246.41;105499;1257;69982;-44
2023/07/15 08:54:03;;;;;;;5.80;4.40;;;;;;;26.78;54.27;100248.67;105455;1257;69921;-46
2023/07/15 08:56:34;;;;;;;;;;;;;;;26.90;54.01;100246.52;105474;1256;73951;-45
2023/07/15 08:59:06;;;;;;;4.40;2.90;;;;;;;27.04;53.40;100244.14;105400;1253;82566;-45
2023/07/15 09:01:35;;;;;;;7.00;4.80;;;;;;;27.22;53.37;100240.48;105450;1257;72154;-45
2023/07/15 09:04:04;;;;;;;7.40;4.50;;;;;;;27.31;52.75;100241.80;105378;1253;70580;-47
2023/07/15 09:06:33;;;;;;;6.30;3.70;;;;;;;27.41;52.23;100239.40;105447;1257;70006;-47
2023/07/15 09:09:01;;;;;;;6.40;3.00;;;;;;;27.51;51.73;100236.19;105477;1253;74834;-46
2023/07/15 09:11:41;;;;;;;5.10;3.00;;;;;;;27.61;51.40;100232.33;105472;1257;83120;-46
2023/07/15 09:14:13;;;;;;;;;;;;;;;27.74;51.06;100228.91;105413;1257;72693;-46
2023/07/15 09:16:42;;;;;;;5.30;2.40;;;;;;;27.87;50.89;100232.02;105396;1257;69959;-45
2023/07/15 09:19:11;;;;;;;5.70;3.00;;;;;;;28.03;50.55;100226.41;105438;1253;70544;-46
2023/07/15 09:21:50;;;;;;;3.70;2.20;;;;;;;28.20;50.23;100228.97;105582;1256;75254;-46
2023/07/15 09:24:19;;;;;;;2.90;1.90;;;;;;;28.35;48.90;100230.35;105420;1257;83779;-46
2023/07/15 09:26:58;;;;;;;4.50;2.50;;;;;;;28.44;48.18;100231.60;105440;1253;72633;-46
2023/07/15 09:29:26;;;;;;;;;;;;;;;28.57;47.90;100227.39;105403;1253;70336;-46
2023/07/15 09:31:55;;;;;;;5.40;2.90;;;;;;;28.72;47.75;100226.27;105455;1257;69945;-45
2023/07/15 09:34:24;;;;;;;4.50;3.00;;;;;;;28.88;47.24;100222.29;105435;1257;73862;-46
2023/07/15 09:36:54;;;;;;;13.90;9.20;;;;;;;28.99;46.70;100221.98;105463;1257;83194;-46
2023/07/15 09:39:23;;;;;;;7.80;3.80;;;;;;;29.12;46.11;100221.19;105445;1257;73753;-47
2023/07/15 09:42:05;;;;;;;6.90;3.80;;;;;;;29.23;45.74;100218.14;105469;1257;70003;-45
2023/07/15 09:44:38;;;;;;;7.50;3.60;;;;;;;29.35;45.53;100212.70;105299;1255;69984;-45
2023/07/15 09:47:07;;;;;;;4.30;2.90;;;;;;;29.44;45.13;100211.23;105249;1254;74452;-45
2023/07/15 09:49:37;;;;;;;6.30;2.70;;;;;;;29.54;44.96;100209.52;105298;1254;83391;-45
2023/07/15 09:52:06;;;;;;;5.90;1.90;;;;;;;29.64;44.75;100211.02;105324;1254;72717;-45
2023/07/15 09:54:35;;;;;;;4.40;2.40;;;;;;;29.77;44.33;100209.60;105511;1254;69980;-45
2023/07/15 09:57:14;;;;;;;3.90;2.00;;;;;;;29.93;43.96;100209.51;105268;1258;69943;-45
2023/07/15 09:59:47;;;;;;;3.90;2.00;;;;;;;30.08;43.47;100205.80;105304;1255;74985;-47
2023/07/15 10:02:37;;;;;;;2.50;1.80;;;;;;;30.23;42.89;100202.42;105271;1254;83377;-46
2023/07/15 10:05:06;;;;;;;2.30;1.80;;;;;;;30.39;42.25;100201.86;105227;1254;73548;-47
2023/07/15 10:07:35;;;;;;;3.50;1.90;;;;;;;30.50;41.78;100202.13;105151;1254;70017;-46
2023/07/15 10:10:05;;;;;;;3.40;1.60;;;;;;;30.64;41.43;100204.48;105215;1258;70017;-47
2023/07/15 10:12:35;;;;;;;4.50;1.90;;;;;;;30.82;40.54;100208.29;105294;1254;74689;-46
2023/07/15 10:15:04;;;;;;;4.20;1.70;;;;;;;31.00;39.99;100205.64;105223;1258;83372;-46
2023/07/15 10:17:35;;;;;;;3.50;1.80;;;;;;;31.21;39.63;100205.06;105181;1254;73738;-46
2023/07/15 10:20:05;;;;;;;2.90;1.90;;;;;;;31.39;39.04;100202.42;105209;1254;69922;-46
2023/07/15 10:22:34;;;;;;;4.10;1.80;;;;;;;31.54;38.35;100202.42;105180;1254;69973;-46
2023/07/15 10:25:05;;;;;;;3.60;1.50;;;;;;;31.72;38.31;100195.52;105217;1258;74888;-46
2023/07/15 10:27:33;;;;;;;3.30;1.90;;;;;;;31.86;37.87;100198.77;105233;1254;82518;-47
2023/07/15 10:30:18;;;;;;;4.60;1.70;;;;;;;32.03;37.39;100194.67;105254;1257;73743;-46
2023/07/15 10:33:05;;;;;;;2.30;1.60;;;;;;;32.29;36.94;100195.38;105438;1254;70016;-44
2023/07/15 10:35:54;;;;;;;3.30;1.90;;;;;;;32.59;36.28;100194.90;105139;1254;69879;-44
2023/07/15 10:38:27;;;;;;;4.30;2.10;;;;;;;32.90;36.01;100188.02;105135;1254;75323;-44
2023/07/15 10:41:02;;;;;;;4.30;1.30;;;;;;;33.09;35.72;100190.63;105191;1258;83215;-46
2023/07/15 10:43:33;;;;;;;4.10;1.80;;;;;;;33.41;35.17;100194.21;105327;1253;73910;-46
2023/07/15 10:46:04;;;;;;;3.30;1.50;;;;;;;33.70;34.75;100186.36;105613;1253;70025;-46
2023/07/15 10:48:33;;;;;;;2.40;1.60;;;;;;;33.91;34.44;100186.24;105514;1253;69887;-46
2023/07/15 10:51:09;;;;;;;2.40;1.60;;;;;;;34.15;34.14;100191.98;105451;1256;74463;-46
2023/07/15 10:53:38;;;;;;;6.00;1.80;;;;;;;34.53;33.76;100190.91;105461;1253;82936;-46
2023/07/15 10:56:09;;;;;;;;;;;;;;;34.74;32.94;100186.57;105422;1257;73490;-47
2023/07/15 10:58:40;;;;;;;2.60;1.40;;;;;;;34.94;32.76;100193.87;105376;1257;70395;-46
2023/07/15 11:01:10;;;;;;;4.40;1.70;;;;;;;35.24;32.68;100188.66;105375;1257;70555;-47
2023/07/15 11:03:43;;;;;;;3.80;1.80;;;;;;;35.60;32.35;100185.20;105395;1253;74834;-46
2023/07/15 11:06:12;;;;;;;2.90;2.00;;;;;;;35.81;31.90;100175.37;105405;1256;83374;-46
2023/07/15 11:08:44;;;;;;;3.60;1.80;;;;;;;35.94;31.54;100179.41;105454;1253;72563;-46
2023/07/15 11:11:13;;;;;;;4.20;1.60;;;;;;;36.12;31.13;100173.83;105421;1253;70012;-46
2023/07/15 11:13:42;;;;;;;4.50;1.50;;;;;;;36.14;31.37;100156.76;105438;1257;69964;-46
2023/07/15 11:16:10;;;;;;;2.30;1.40;;;;;;;36.17;31.02;100161.59;105635;1255;73789;-46
2023/07/15 11:18:39;;;;;;;1.60;1.30;;;;;;;36.40;30.47;100179.45;105413;1257;83494;-46
2023/07/15 11:21:08;;;;;;;1.80;1.40;;;;;;;36.50;29.74;100173.39;105348;1253;73755;-47
2023/07/15 11:23:36;;;;;;;;;;;;;;;36.65;29.73;100169.50;105397;1253;70091;-46
2023/07/15 11:26:08;;;;;;;1.70;1.40;;;;;;;36.93;29.66;100168.58;105372;1253;69901;-47
2023/07/15 11:28:50;;;;;;;2.50;1.30;;;;;;;37.23;29.49;100163.27;105372;1253;73755;-46
2023/07/15 11:31:21;;;;;;;5.40;1.50;;;;;;;37.48;28.72;100166.75;105349;1253;83720;-47